Time;durP1;ratioP1;P1;durP2;ratioP2;P2;SDS_P1;SDS_P2;PMS_P1;PMS_P2;Temp;Humidity;BMP_temperature;BMP_pressure;BME280_temperature;BME280_humidity;BME280_pressure;Samples;Min_cycle;Max_cycle;Signal;HPM_P1;HPM_P2
2024/01/04 00:00:27;;;;;;;0.10;0.10;;;;;;;;;;6317847;28;20465;-78
2024/01/04 00:03:28;;;;;;;0.10;0.10;;;;;;;;;;6297224;28;20381;-78
2024/01/04 00:06:28;;;;;;;0.10;0.10;;;;;;;;;;6303853;28;20082;-79
2024/01/04 00:09:28;;;;;;;0.10;0.10;;;;;;;;;;6318108;28;20367;-79
2024/01/04 00:12:28;;;;;;;0.10;0.10;;;;;;;;;;6317321;28;20031;-79
2024/01/04 00:15:28;;;;;;;0.20;0.20;;;;;;;;;;6277441;28;20387;-79
2024/01/04 00:18:28;;;;;;;0.10;0.10;;;;;;;;;;6292035;28;20062;-79
2024/01/04 00:21:29;;;;;;;0.10;0.10;;;;;;;;;;6298098;28;20024;-79
2024/01/04 00:24:29;;;;;;;0.10;0.10;;;;;;;;;;6285825;28;20436;-79
2024/01/04 00:27:29;;;;;;;0.10;0.10;;;;;;;;;;6308304;28;20115;-79
2024/01/04 00:30:29;;;;;;;0.10;0.10;;;;;;;;;;6306012;28;20024;-79
2024/01/04 00:33:30;;;;;;;0.10;0.10;;;;;;;;;;6300521;28;20052;-78
2024/01/04 00:36:30;;;;;;;0.10;0.10;;;;;;;;;;6314785;28;20020;-79
2024/01/04 00:39:30;;;;;;;0.15;0.15;;;;;;;;;;6310071;28;20427;-79
2024/01/04 00:42:30;;;;;;;0.10;0.10;;;;;;;;;;6316644;28;20016;-79
2024/01/04 00:45:31;;;;;;;0.10;0.10;;;;;;;;;;6304883;28;20016;-78
2024/01/04 00:48:31;;;;;;;0.10;0.10;;;;;;;;;;6300701;28;20402;-79
2024/01/04 00:51:32;;;;;;;0.10;0.10;;;;;;;;;;6295052;28;20409;-79
2024/01/04 00:54:32;;;;;;;0.10;0.10;;;;;;;;;;6316666;28;20099;-79
2024/01/04 00:57:32;;;;;;;0.10;0.10;;;;;;;;;;6277861;28;20490;-79
2024/01/04 01:00:33;;;;;;;0.10;0.10;;;;;;;;;;6315842;28;20414;-78
2024/01/04 01:03:33;;;;;;;0.10;0.10;;;;;;;;;;6282662;28;20016;-86
2024/01/04 01:06:34;;;;;;;0.10;0.10;;;;;;;;;;6294751;28;20012;-85
2024/01/04 01:09:34;;;;;;;0.10;0.10;;;;;;;;;;6277382;28;20081;-86
2024/01/04 01:12:34;;;;;;;0.10;0.10;;;;;;;;;;6321888;28;20012;-86
2024/01/04 01:15:35;;;;;;;0.10;0.10;;;;;;;;;;6303843;28;20056;-79
2024/01/04 01:18:35;;;;;;;0.10;0.10;;;;;;;;;;6303101;28;20078;-79
2024/01/04 01:21:35;;;;;;;0.10;0.10;;;;;;;;;;6320957;28;20024;-79
2024/01/04 01:24:36;;;;;;;0.13;0.13;;;;;;;;;;6322453;28;20020;-85
2024/01/04 01:27:36;;;;;;;0.10;0.10;;;;;;;;;;6292545;28;20098;-87
2024/01/04 01:30:37;;;;;;;0.10;0.10;;;;;;;;;;6315432;28;20771;-86
2024/01/04 01:33:40;;;;;;;0.10;0.10;;;;;;;;;;6290433;28;20012;-86
2024/01/04 01:36:40;;;;;;;0.20;0.20;;;;;;;;;;6321807;28;20031;-86
2024/01/04 01:39:40;;;;;;;0.20;0.20;;;;;;;;;;6321627;28;20028;-85
2024/01/04 01:42:45;;;;;;;0.20;0.20;;;;;;;;;;6320894;28;20024;-86
2024/01/04 01:45:46;;;;;;;0.10;0.10;;;;;;;;;;6306858;28;20047;-84
2024/01/04 01:48:46;;;;;;;0.10;0.10;;;;;;;;;;6297403;28;20416;-85
2024/01/04 01:51:48;;;;;;;0.10;0.10;;;;;;;;;;6310884;28;20079;-85
2024/01/04 01:54:49;;;;;;;0.10;0.10;;;;;;;;;;6309522;28;20235;-86
2024/01/04 01:57:49;;;;;;;0.10;0.10;;;;;;;;;;6305111;28;20433;-85
2024/01/04 02:00:49;;;;;;;0.10;0.10;;;;;;;;;;6318998;28;20118;-85
2024/01/04 02:03:50;;;;;;;0.10;0.10;;;;;;;;;;6301842;28;20162;-83
2024/01/04 02:06:50;;;;;;;0.10;0.10;;;;;;;;;;6310827;28;20036;-84
2024/01/04 02:09:50;;;;;;;0.10;0.10;;;;;;;;;;6319427;28;20042;-84
2024/01/04 02:12:50;;;;;;;0.10;0.10;;;;;;;;;;6320495;28;20020;-85
2024/01/04 02:15:50;;;;;;;0.10;0.10;;;;;;;;;;6306323;28;20023;-85
2024/01/04 02:18:51;;;;;;;0.10;0.10;;;;;;;;;;6316768;28;20048;-82
2024/01/04 02:21:51;;;;;;;0.10;0.10;;;;;;;;;;6308910;28;20031;-85
2024/01/04 02:24:51;;;;;;;0.10;0.10;;;;;;;;;;6288476;28;20108;-84
2024/01/04 02:27:53;;;;;;;0.10;0.10;;;;;;;;;;6304870;28;20041;-84
2024/01/04 02:30:53;;;;;;;0.10;0.10;;;;;;;;;;6294651;28;20032;-83
2024/01/04 02:33:54;;;;;;;0.10;0.10;;;;;;;;;;6295882;28;20048;-77
2024/01/04 02:36:54;;;;;;;0.10;0.10;;;;;;;;;;6319009;28;20405;-76
2024/01/04 02:39:54;;;;;;;0.10;0.10;;;;;;;;;;6294529;28;20028;-76
2024/01/04 02:42:55;;;;;;;0.10;0.10;;;;;;;;;;6319550;28;20099;-75
2024/01/04 02:45:55;;;;;;;0.13;0.13;;;;;;;;;;6289782;28;20107;-76
2024/01/04 02:48:55;;;;;;;0.10;0.10;;;;;;;;;;6317232;28;20465;-76
2024/01/04 02:51:55;;;;;;;0.10;0.10;;;;;;;;;;6301164;28;20097;-75
2024/01/04 02:54:56;;;;;;;0.10;0.10;;;;;;;;;;6303487;28;20487;-76
2024/01/04 02:57:56;;;;;;;0.20;0.20;;;;;;;;;;6295521;28;20025;-75
2024/01/04 03:00:57;;;;;;;0.10;0.10;;;;;;;;;;6285738;28;20039;-76
2024/01/04 03:03:57;;;;;;;0.20;0.20;;;;;;;;;;6301677;28;20589;-75
2024/01/04 03:06:57;;;;;;;0.10;0.10;;;;;;;;;;6310969;28;20016;-74
2024/01/04 03:09:58;;;;;;;0.10;0.10;;;;;;;;;;6316814;28;20459;-75
2024/01/04 03:12:58;;;;;;;0.10;0.10;;;;;;;;;;6308018;28;20107;-74
2024/01/04 03:15:58;;;;;;;0.10;0.10;;;;;;;;;;6315946;28;20019;-75
2024/01/04 03:18:58;;;;;;;0.13;0.13;;;;;;;;;;6316897;28;20035;-75
2024/01/04 03:21:59;;;;;;;0.15;0.15;;;;;;;;;;6309681;28;20025;-74
2024/01/04 03:24:59;;;;;;;0.10;0.10;;;;;;;;;;6317413;28;20141;-82
2024/01/04 03:27:59;;;;;;;0.20;0.20;;;;;;;;;;6311004;28;20093;-81
2024/01/04 03:31:00;;;;;;;0.10;0.10;;;;;;;;;;6309995;28;20032;-81
2024/01/04 03:34:00;;;;;;;0.10;0.10;;;;;;;;;;6295032;28;20119;-78
2024/01/04 03:37:00;;;;;;;0.10;0.10;;;;;;;;;;6297624;28;20411;-78
2024/01/04 03:40:00;;;;;;;0.20;0.20;;;;;;;;;;6311819;28;20545;-77
2024/01/04 03:43:02;;;;;;;0.10;0.10;;;;;;;;;;6318037;28;20481;-78
2024/01/04 03:46:06;;;;;;;0.10;0.10;;;;;;;;;;6293337;28;20036;-82
2024/01/04 03:49:11;;;;;;;0.20;0.20;;;;;;;;;;6311802;28;20035;-81
2024/01/04 03:52:11;;;;;;;0.20;0.20;;;;;;;;;;6314282;28;20110;-82
2024/01/04 03:55:18;;;;;;;0.20;0.20;;;;;;;;;;6315212;28;20097;-77
2024/01/04 03:58:18;;;;;;;0.10;0.10;;;;;;;;;;6304276;28;20486;-77
2024/01/04 04:01:18;;;;;;;0.20;0.20;;;;;;;;;;6299050;28;20024;-77
2024/01/04 04:04:18;;;;;;;0.20;0.20;;;;;;;;;;6313780;28;20028;-82
2024/01/04 04:07:19;;;;;;;0.20;0.20;;;;;;;;;;6306179;28;20067;-82
2024/01/04 04:10:19;;;;;;;0.20;0.20;;;;;;;;;;6312277;28;20024;-82
2024/01/04 04:13:19;;;;;;;0.10;0.10;;;;;;;;;;6317214;28;20028;-81
2024/01/04 04:16:20;;;;;;;0.20;0.20;;;;;;;;;;6310293;28;20516;-82
2024/01/04 04:19:20;;;;;;;0.20;0.20;;;;;;;;;;6287271;28;20040;-80
2024/01/04 04:22:20;;;;;;;0.10;0.10;;;;;;;;;;6298551;28;20471;-81
2024/01/04 04:25:20;;;;;;;0.20;0.20;;;;;;;;;;6308680;28;20102;-81
2024/01/04 04:28:20;;;;;;;0.20;0.20;;;;;;;;;;6290513;28;20020;-82
2024/01/04 04:31:21;;;;;;;0.10;0.10;;;;;;;;;;6312895;28;20046;-81
2024/01/04 04:34:22;;;;;;;0.20;0.20;;;;;;;;;;6306399;28;20506;-82
2024/01/04 04:37:22;;;;;;;0.10;0.10;;;;;;;;;;6301519;28;20467;-81
2024/01/04 04:40:22;;;;;;;0.13;0.13;;;;;;;;;;6313427;28;20047;-78
2024/01/04 04:43:22;;;;;;;0.10;0.10;;;;;;;;;;6311434;28;20104;-81
2024/01/04 04:46:23;;;;;;;0.13;0.13;;;;;;;;;;6305836;28;20107;-80
2024/01/04 04:49:23;;;;;;;0.20;0.20;;;;;;;;;;6311495;28;20016;-82
2024/01/04 04:52:23;;;;;;;0.10;0.10;;;;;;;;;;6313011;28;20080;-82
2024/01/04 04:55:23;;;;;;;0.17;0.17;;;;;;;;;;6316537;28;20020;-76
2024/01/04 04:58:23;;;;;;;0.20;0.20;;;;;;;;;;6298746;28;20012;-75
2024/01/04 05:01:24;;;;;;;0.20;0.20;;;;;;;;;;6305911;28;20370;-75
2024/01/04 05:04:24;;;;;;;0.20;0.20;;;;;;;;;;6313685;28;20009;-74
2024/01/04 05:07:24;;;;;;;0.20;0.20;;;;;;;;;;6283207;28;20056;-75
2024/01/04 05:10:24;;;;;;;0.20;0.20;;;;;;;;;;6298273;28;20024;-75
2024/01/04 05:13:25;;;;;;;0.20;0.20;;;;;;;;;;6316878;28;20020;-76
2024/01/04 05:16:25;;;;;;;0.20;0.20;;;;;;;;;;6313564;28;20097;-77
2024/01/04 05:19:25;;;;;;;0.20;0.20;;;;;;;;;;6291526;28;20037;-77
2024/01/04 05:22:25;;;;;;;0.20;0.20;;;;;;;;;;6294513;28;20095;-77
2024/01/04 05:25:25;;;;;;;0.20;0.20;;;;;;;;;;6298102;28;20081;-78
2024/01/04 05:28:26;;;;;;;0.20;0.20;;;;;;;;;;6315173;28;20028;-76
2024/01/04 05:31:26;;;;;;;0.20;0.20;;;;;;;;;;6315096;28;20024;-77
2024/01/04 05:34:29;;;;;;;0.20;0.20;;;;;;;;;;6292640;28;20052;-78
2024/01/04 05:37:29;;;;;;;0.20;0.20;;;;;;;;;;6292218;28;20441;-78
2024/01/04 05:40:29;;;;;;;0.20;0.20;;;;;;;;;;6315086;28;20027;-78
2024/01/04 05:43:29;;;;;;;0.20;0.20;;;;;;;;;;6315161;28;20020;-78
2024/01/04 05:46:31;;;;;;;0.20;0.20;;;;;;;;;;6289647;28;20032;-77
2024/01/04 05:49:32;;;;;;;0.20;0.20;;;;;;;;;;6294853;28;20447;-76
2024/01/04 05:52:33;;;;;;;0.20;0.20;;;;;;;;;;6303745;28;20028;-77
2024/01/04 05:55:33;;;;;;;0.20;0.20;;;;;;;;;;6296129;28;20028;-77
2024/01/04 05:58:33;;;;;;;0.20;0.20;;;;;;;;;;6298042;28;20031;-77
2024/01/04 06:01:36;;;;;;;0.20;0.20;;;;;;;;;;6304161;28;20040;-77
2024/01/04 06:04:36;;;;;;;0.20;0.20;;;;;;;;;;6313679;28;20024;-77
2024/01/04 06:07:37;;;;;;;0.20;0.20;;;;;;;;;;6312258;28;20398;-76
2024/01/04 06:10:37;;;;;;;0.20;0.20;;;;;;;;;;6317079;28;20027;-77
2024/01/04 06:13:37;;;;;;;0.20;0.20;;;;;;;;;;6302562;28;20024;-76
2024/01/04 06:16:37;;;;;;;0.20;0.20;;;;;;;;;;6289319;28;20020;-77
2024/01/04 06:19:37;;;;;;;0.20;0.20;;;;;;;;;;6308307;28;20064;-77
2024/01/04 06:22:39;;;;;;;0.20;0.20;;;;;;;;;;6308113;28;20110;-77
2024/01/04 06:25:39;;;;;;;0.10;0.10;;;;;;;;;;6274407;28;20104;-80
2024/01/04 06:28:39;;;;;;;0.20;0.20;;;;;;;;;;6311285;28;20025;-81
2024/01/04 06:31:39;;;;;;;0.20;0.20;;;;;;;;;;6308964;28;20099;-80
2024/01/04 06:34:40;;;;;;;0.20;0.20;;;;;;;;;;6306406;28;20020;-81
2024/01/04 06:37:40;;;;;;;0.20;0.20;;;;;;;;;;6301640;28;20016;-80
2024/01/04 06:40:40;;;;;;;0.20;0.20;;;;;;;;;;6305950;28;20174;-80
2024/01/04 06:43:41;;;;;;;0.20;0.20;;;;;;;;;;6314544;28;20579;-82
2024/01/04 06:46:41;;;;;;;0.20;0.20;;;;;;;;;;6314845;28;20035;-82
2024/01/04 06:49:41;;;;;;;0.20;0.20;;;;;;;;;;6312453;28;20028;-81
2024/01/04 06:52:41;;;;;;;0.20;0.20;;;;;;;;;;6309023;28;20458;-83
2024/01/04 06:55:42;;;;;;;0.13;0.13;;;;;;;;;;6309890;28;20020;-83
2024/01/04 06:58:42;;;;;;;0.20;0.20;;;;;;;;;;6310925;28;20028;-83
2024/01/04 07:01:42;;;;;;;0.20;0.20;;;;;;;;;;6295340;28;20024;-84
2024/01/04 07:04:42;;;;;;;0.20;0.20;;;;;;;;;;6305141;28;20025;-85
2024/01/04 07:07:42;;;;;;;0.20;0.20;;;;;;;;;;6307044;28;20056;-86
2024/01/04 07:10:43;;;;;;;0.20;0.20;;;;;;;;;;6317125;28;20038;-84
2024/01/04 07:13:43;;;;;;;0.20;0.20;;;;;;;;;;6318829;28;20089;-85
2024/01/04 07:16:44;;;;;;;0.20;0.20;;;;;;;;;;6299156;28;20047;-85
2024/01/04 07:19:44;;;;;;;0.20;0.20;;;;;;;;;;6317305;28;20377;-85
2024/01/04 07:22:44;;;;;;;0.20;0.20;;;;;;;;;;6299282;28;20504;-85
2024/01/04 07:25:44;;;;;;;0.20;0.20;;;;;;;;;;6296434;28;20090;-86
2024/01/04 07:28:44;;;;;;;0.20;0.20;;;;;;;;;;6315299;28;20504;-85
2024/01/04 07:31:48;;;;;;;0.20;0.20;;;;;;;;;;6301737;28;20016;-86
2024/01/04 07:34:50;;;;;;;0.20;0.20;;;;;;;;;;6300522;28;20030;-85
2024/01/04 07:37:50;;;;;;;0.20;0.20;;;;;;;;;;6317885;28;20023;-85
2024/01/04 07:40:51;;;;;;;0.20;0.20;;;;;;;;;;6299552;28;20027;-86
2024/01/04 07:43:51;;;;;;;0.20;0.20;;;;;;;;;;6318547;28;20019;-86
2024/01/04 07:46:51;;;;;;;0.20;0.20;;;;;;;;;;6308722;28;20033;-87
2024/01/04 07:49:51;;;;;;;0.20;0.20;;;;;;;;;;6306597;28;20028;-87
2024/01/04 07:52:52;;;;;;;0.20;0.20;;;;;;;;;;6299992;28;20028;-87
2024/01/04 07:55:52;;;;;;;0.10;0.10;;;;;;;;;;6304873;28;20016;-87
2024/01/04 07:58:53;;;;;;;0.20;0.20;;;;;;;;;;6301257;28;20024;-86
2024/01/04 08:01:53;;;;;;;0.20;0.20;;;;;;;;;;6306783;28;20035;-87
2024/01/04 08:04:53;;;;;;;0.10;0.10;;;;;;;;;;6301435;28;20174;-87
2024/01/04 08:07:53;;;;;;;0.20;0.20;;;;;;;;;;6294696;28;20440;-86
2024/01/04 08:10:54;;;;;;;0.20;0.20;;;;;;;;;;6317362;28;20491;-87
2024/01/04 08:13:54;;;;;;;0.20;0.20;;;;;;;;;;6285109;28;20104;-85
2024/01/04 08:16:54;;;;;;;0.20;0.20;;;;;;;;;;6303617;28;20091;-84
2024/01/04 08:19:54;;;;;;;0.20;0.20;;;;;;;;;;6298794;28;20536;-85
2024/01/04 08:22:55;;;;;;;0.20;0.20;;;;;;;;;;6308595;28;20028;-86
2024/01/04 08:25:56;;;;;;;0.20;0.20;;;;;;;;;;6285249;28;20040;-85
2024/01/04 08:28:56;;;;;;;0.20;0.20;;;;;;;;;;6297941;28;20030;-84
2024/01/04 08:31:56;;;;;;;0.20;0.20;;;;;;;;;;6301301;28;20074;-85
2024/01/04 08:34:56;;;;;;;0.10;0.10;;;;;;;;;;6303659;28;20012;-84
2024/01/04 08:37:57;;;;;;;0.20;0.20;;;;;;;;;;6310106;28;20016;-83
2024/01/04 08:40:57;;;;;;;0.20;0.20;;;;;;;;;;6273861;28;20036;-81
2024/01/04 08:43:57;;;;;;;0.20;0.20;;;;;;;;;;6317421;28;20020;-77
2024/01/04 08:46:59;;;;;;;0.20;0.20;;;;;;;;;;6317032;28;20035;-77
2024/01/04 08:50:00;;;;;;;0.20;0.20;;;;;;;;;;6311222;28;20024;-77
2024/01/04 08:53:01;;;;;;;0.20;0.20;;;;;;;;;;6307159;28;20129;-77
2024/01/04 08:56:05;;;;;;;0.20;0.20;;;;;;;;;;6312001;28;20122;-77
2024/01/04 08:59:05;;;;;;;0.20;0.20;;;;;;;;;;6316161;28;20032;-76
2024/01/04 09:02:05;;;;;;;0.20;0.20;;;;;;;;;;6303505;28;20118;-77
2024/01/04 09:05:06;;;;;;;0.17;0.17;;;;;;;;;;6302164;28;20024;-76
2024/01/04 09:08:07;;;;;;;0.20;0.20;;;;;;;;;;6315089;28;20028;-77
2024/01/04 09:11:07;;;;;;;0.20;0.20;;;;;;;;;;6316389;28;20032;-77
2024/01/04 09:14:11;;;;;;;0.20;0.20;;;;;;;;;;6298060;28;20386;-77
2024/01/04 09:17:12;;;;;;;0.13;0.13;;;;;;;;;;6297906;28;20355;-77
2024/01/04 09:20:15;;;;;;;0.10;0.10;;;;;;;;;;6296526;28;20039;-77
2024/01/04 09:23:15;;;;;;;0.10;0.10;;;;;;;;;;6315124;28;20023;-77
2024/01/04 09:26:16;;;;;;;0.10;0.10;;;;;;;;;;6304014;28;20055;-77
2024/01/04 09:29:17;;;;;;;0.10;0.10;;;;;;;;;;6314220;28;20024;-78
2024/01/04 09:32:18;;;;;;;0.10;0.10;;;;;;;;;;6295327;28;20026;-78
2024/01/04 09:35:21;;;;;;;0.10;0.10;;;;;;;;;;6321962;28;20111;-78
2024/01/04 09:38:21;;;;;;;0.10;0.10;;;;;;;;;;6318660;28;20099;-78
2024/01/04 09:41:35;;;;;;;0.20;0.20;;;;;;;;;;6303771;28;20020;-79
2024/01/04 09:44:38;;;;;;;0.10;0.10;;;;;;;;;;6297784;28;20383;-79
2024/01/04 09:47:40;;;;;;;0.20;0.20;;;;;;;;;;6312380;28;20028;-80
2024/01/04 09:50:42;;;;;;;0.20;0.20;;;;;;;;;;6318053;28;20073;-80
2024/01/04 09:53:42;;;;;;;;;;;;;;;;;;6310434;28;20032;-82
2024/01/04 09:56:43;;;;;;;0.20;0.20;;;;;;;;;;6301123;28;19962;-84
2024/01/04 09:59:44;;;;;;;0.10;0.10;;;;;;;;;;6298818;28;20031;-83
2024/01/04 10:02:44;;;;;;;0.20;0.20;;;;;;;;;;6304985;28;20021;-80
2024/01/04 10:05:45;;;;;;;0.20;0.20;;;;;;;;;;6315296;28;20073;-81
2024/01/04 10:08:47;;;;;;;0.20;0.20;;;;;;;;;;6292054;28;20126;-80
2024/01/04 10:11:47;;;;;;;;;;;;;;;;;;6316383;28;20013;-81
2024/01/04 10:14:48;;;;;;;0.20;0.20;;;;;;;;;;6287885;28;19911;-75
2024/01/04 10:17:49;;;;;;;0.20;0.20;;;;;;;;;;6320427;28;20545;-76
2024/01/04 10:21:03;;;;;;;0.10;0.10;;;;;;;;;;6301900;28;20286;-77
2024/01/04 10:24:03;;;;;;;0.20;0.20;;;;;;;;;;6294607;28;20032;-82
2024/01/04 10:27:04;;;;;;;0.20;0.20;;;;;;;;;;6310340;28;20835;-82
2024/01/04 10:30:06;;;;;;;0.10;0.10;;;;;;;;;;6304383;28;20058;-80
2024/01/04 10:33:07;;;;;;;0.20;0.20;;;;;;;;;;6304959;28;20032;-82
2024/01/04 10:36:09;;;;;;;0.20;0.20;;;;;;;;;;6297194;28;20390;-82
2024/01/04 10:39:09;;;;;;;0.20;0.20;;;;;;;;;;6313189;28;20423;-82
2024/01/04 10:42:09;;;;;;;0.20;0.20;;;;;;;;;;6309545;28;20082;-83
2024/01/04 10:45:10;;;;;;;0.20;0.20;;;;;;;;;;6291432;28;20025;-82
2024/01/04 10:48:13;;;;;;;0.20;0.20;;;;;;;;;;6306387;28;20887;-82
2024/01/04 10:51:13;;;;;;;0.10;0.10;;;;;;;;;;6298496;28;20506;-82
2024/01/04 10:54:14;;;;;;;0.17;0.17;;;;;;;;;;6299965;28;20077;-83
2024/01/04 10:57:14;;;;;;;0.20;0.20;;;;;;;;;;6317903;28;20031;-84
2024/01/04 11:00:15;;;;;;;0.20;0.20;;;;;;;;;;6288129;28;20063;-82
2024/01/04 11:03:17;;;;;;;0.20;0.20;;;;;;;;;;6294302;28;20225;-82
2024/01/04 11:06:17;;;;;;;0.10;0.10;;;;;;;;;;6299198;28;20028;-82
2024/01/04 11:09:19;;;;;;;0.10;0.10;;;;;;;;;;6281256;28;20017;-82
2024/01/04 11:12:19;;;;;;;0.10;0.10;;;;;;;;;;6313937;28;20486;-83
2024/01/04 11:15:20;;;;;;;0.20;0.20;;;;;;;;;;6286161;28;20067;-84
2024/01/04 11:18:38;;;;;;;0.20;0.20;;;;;;;;;;6314245;28;20055;-84
2024/01/04 11:21:50;;;;;;;0.20;0.20;;;;;;;;;;6315888;28;20512;-83
2024/01/04 11:24:51;;;;;;;;;;;;;;;;;;6290014;28;20029;-83
2024/01/04 11:27:52;;;;;;;0.20;0.20;;;;;;;;;;6307290;28;19920;-85
2024/01/04 11:30:52;;;;;;;;;;;;;;;;;;6297214;28;20047;-85
2024/01/04 11:33:54;;;;;;;0.10;0.10;;;;;;;;;;6314732;28;19937;-84
2024/01/04 11:37:07;;;;;;;0.20;0.20;;;;;;;;;;6297379;28;20061;-84
2024/01/04 11:40:08;;;;;;;0.20;0.20;;;;;;;;;;6294963;28;20431;-84
2024/01/04 11:43:16;;;;;;;0.10;0.10;;;;;;;;;;6314488;28;20715;-83
2024/01/04 11:46:21;;;;;;;0.20;0.20;;;;;;;;;;6313185;28;20549;-84
2024/01/04 11:49:22;;;;;;;0.10;0.10;;;;;;;;;;6307205;28;20691;-82
2024/01/04 11:52:22;;;;;;;0.13;0.13;;;;;;;;;;6308460;28;20024;-84
2024/01/04 11:55:24;;;;;;;0.10;0.10;;;;;;;;;;6297141;28;20485;-82
2024/01/04 11:58:28;;;;;;;0.20;0.20;;;;;;;;;;6305039;28;20027;-82
2024/01/04 12:01:28;;;;;;;0.20;0.20;;;;;;;;;;6312120;28;20035;-83
2024/01/04 12:04:28;;;;;;;0.17;0.17;;;;;;;;;;6312056;28;20481;-81
2024/01/04 12:07:30;;;;;;;0.20;0.20;;;;;;;;;;6298727;28;20468;-80
2024/01/04 12:10:30;;;;;;;0.20;0.20;;;;;;;;;;6310632;28;20059;-79
2024/01/04 12:13:31;;;;;;;0.20;0.20;;;;;;;;;;6300487;28;20082;-81
2024/01/04 12:16:31;;;;;;;0.20;0.20;;;;;;;;;;6316089;28;20452;-82
2024/01/04 12:19:32;;;;;;;0.10;0.10;;;;;;;;;;6303640;28;20074;-80
2024/01/04 12:22:33;;;;;;;0.10;0.10;;;;;;;;;;6298352;28;20397;-81
2024/01/04 12:25:34;;;;;;;0.10;0.10;;;;;;;;;;6287930;28;20048;-81
2024/01/04 12:28:34;;;;;;;0.10;0.10;;;;;;;;;;6314775;28;20016;-81
2024/01/04 12:31:38;;;;;;;0.20;0.20;;;;;;;;;;6306388;28;20482;-81
2024/01/04 12:34:42;;;;;;;0.20;0.20;;;;;;;;;;6313696;28;20020;-82
2024/01/04 12:37:42;;;;;;;0.20;0.20;;;;;;;;;;6309449;28;20020;-81
2024/01/04 12:40:43;;;;;;;0.20;0.20;;;;;;;;;;6275368;28;20067;-83
2024/01/04 12:43:44;;;;;;;0.10;0.10;;;;;;;;;;6313368;28;20386;-83
2024/01/04 12:46:46;;;;;;;0.10;0.10;;;;;;;;;;6286745;28;20075;-83
2024/01/04 12:49:56;;;;;;;0.10;0.10;;;;;;;;;;6305108;28;20159;-83
2024/01/04 12:52:56;;;;;;;0.10;0.10;;;;;;;;;;6287377;28;20106;-84
2024/01/04 12:55:57;;;;;;;0.10;0.10;;;;;;;;;;6309941;28;20020;-83
2024/01/04 12:59:01;;;;;;;0.10;0.10;;;;;;;;;;6296777;28;20094;-84
2024/01/04 13:02:03;;;;;;;0.10;0.10;;;;;;;;;;6292250;28;20809;-83
2024/01/04 13:05:04;;;;;;;0.15;0.15;;;;;;;;;;6298305;28;20437;-84
2024/01/04 13:08:04;;;;;;;0.10;0.10;;;;;;;;;;6279933;28;20028;-84
2024/01/04 13:11:05;;;;;;;0.10;0.10;;;;;;;;;;6316798;28;20024;-84
2024/01/04 13:14:05;;;;;;;0.10;0.10;;;;;;;;;;6293545;28;20035;-84
2024/01/04 13:17:06;;;;;;;0.20;0.20;;;;;;;;;;6307507;28;20789;-84
2024/01/04 13:20:07;;;;;;;0.10;0.10;;;;;;;;;;6313238;28;20038;-84
2024/01/04 13:23:08;;;;;;;0.10;0.10;;;;;;;;;;6315612;28;20035;-84
2024/01/04 13:26:08;;;;;;;0.20;0.20;;;;;;;;;;6280765;28;20070;-84
2024/01/04 13:29:11;;;;;;;0.20;0.20;;;;;;;;;;6291715;28;20087;-84
2024/01/04 13:32:11;;;;;;;0.10;0.10;;;;;;;;;;6308152;28;20020;-84
2024/01/04 13:35:20;;;;;;;0.10;0.10;;;;;;;;;;6302109;28;20170;-83
2024/01/04 13:38:21;;;;;;;0.20;0.20;;;;;;;;;;6306212;28;20016;-83
2024/01/04 13:41:21;;;;;;;0.20;0.20;;;;;;;;;;6306706;28;20150;-83
2024/01/04 13:44:22;;;;;;;0.10;0.10;;;;;;;;;;6310492;28;20024;-83
2024/01/04 13:47:22;;;;;;;0.10;0.10;;;;;;;;;;6308137;28;20031;-82
2024/01/04 13:50:23;;;;;;;0.20;0.20;;;;;;;;;;6298233;28;20054;-82
2024/01/04 13:53:24;;;;;;;0.20;0.20;;;;;;;;;;6284514;28;20409;-82
2024/01/04 13:56:24;;;;;;;0.10;0.10;;;;;;;;;;6288418;28;20021;-83
2024/01/04 13:59:30;;;;;;;0.10;0.10;;;;;;;;;;6291828;28;20085;-83
2024/01/04 14:02:30;;;;;;;0.10;0.10;;;;;;;;;;6309792;28;20020;-82
2024/01/04 14:05:40;;;;;;;0.10;0.10;;;;;;;;;;6309423;28;20540;-82
2024/01/04 14:08:40;;;;;;;0.20;0.20;;;;;;;;;;6286156;28;20047;-82
2024/01/04 14:11:40;;;;;;;0.10;0.10;;;;;;;;;;6312409;28;20024;-82
2024/01/04 14:14:40;;;;;;;0.10;0.10;;;;;;;;;;6286696;28;20099;-82
2024/01/04 14:17:41;;;;;;;0.10;0.10;;;;;;;;;;6299027;28;20536;-82
2024/01/04 14:20:42;;;;;;;0.13;0.13;;;;;;;;;;6320114;28;20023;-83
2024/01/04 14:23:42;;;;;;;0.20;0.20;;;;;;;;;;6295583;28;20024;-83
2024/01/04 14:26:42;;;;;;;0.17;0.17;;;;;;;;;;6317949;28;20127;-83
2024/01/04 14:29:43;;;;;;;0.10;0.10;;;;;;;;;;6298673;28;20417;-83
2024/01/04 14:32:43;;;;;;;0.13;0.13;;;;;;;;;;6287457;28;20094;-83
2024/01/04 14:35:43;;;;;;;0.17;0.17;;;;;;;;;;6303627;28;20509;-77
2024/01/04 14:38:43;;;;;;;0.10;0.10;;;;;;;;;;6310308;28;20012;-78
2024/01/04 14:41:43;;;;;;;0.13;0.13;;;;;;;;;;6311943;28;20455;-78
2024/01/04 14:44:44;;;;;;;0.17;0.17;;;;;;;;;;6318829;28;20012;-78
2024/01/04 14:47:44;;;;;;;0.10;0.10;;;;;;;;;;6304371;28;20019;-78
2024/01/04 14:50:45;;;;;;;0.20;0.20;;;;;;;;;;6313249;28;20147;-78
2024/01/04 14:53:45;;;;;;;0.20;0.20;;;;;;;;;;6307109;28;20020;-77
2024/01/04 14:56:46;;;;;;;0.20;0.20;;;;;;;;;;6295311;28;20462;-77
2024/01/04 14:59:46;;;;;;;0.20;0.20;;;;;;;;;;6307607;28;20024;-78
2024/01/04 15:02:46;;;;;;;0.20;0.20;;;;;;;;;;6298808;28;20020;-78
2024/01/04 15:05:47;;;;;;;0.20;0.20;;;;;;;;;;6304040;28;20346;-78
2024/01/04 15:08:48;;;;;;;0.20;0.20;;;;;;;;;;6297941;28;20027;-78
2024/01/04 15:11:49;;;;;;;0.20;0.20;;;;;;;;;;6279643;28;20020;-78
2024/01/04 15:14:49;;;;;;;0.10;0.10;;;;;;;;;;6310773;28;20008;-77
2024/01/04 15:17:49;;;;;;;0.20;0.20;;;;;;;;;;6310594;28;20012;-77
2024/01/04 15:20:49;;;;;;;0.20;0.20;;;;;;;;;;6300204;28;20130;-78
2024/01/04 15:23:49;;;;;;;0.20;0.20;;;;;;;;;;6313912;28;20015;-78
2024/01/04 15:26:50;;;;;;;0.10;0.10;;;;;;;;;;6302584;28;20394;-77
2024/01/04 15:29:51;;;;;;;0.20;0.20;;;;;;;;;;6317311;28;20036;-77
2024/01/04 15:32:51;;;;;;;0.20;0.20;;;;;;;;;;6310359;28;20478;-77
2024/01/04 15:35:51;;;;;;;0.20;0.20;;;;;;;;;;6310076;28;20015;-77
2024/01/04 15:38:52;;;;;;;0.20;0.20;;;;;;;;;;6307262;28;20134;-76
2024/01/04 15:41:54;;;;;;;0.20;0.20;;;;;;;;;;6316123;28;20391;-78
2024/01/04 15:44:54;;;;;;;0.20;0.20;;;;;;;;;;6315868;28;20020;-81
2024/01/04 15:47:55;;;;;;;0.20;0.20;;;;;;;;;;6317776;28;20059;-82
2024/01/04 15:50:58;;;;;;;0.20;0.20;;;;;;;;;;6308421;28;20074;-83
2024/01/04 15:53:59;;;;;;;0.20;0.20;;;;;;;;;;6316027;28;20020;-82
2024/01/04 15:56:59;;;;;;;0.10;0.10;;;;;;;;;;6307663;28;20024;-83
2024/01/04 15:59:59;;;;;;;0.20;0.20;;;;;;;;;;6311767;28;20565;-82
2024/01/04 16:03:00;;;;;;;0.20;0.20;;;;;;;;;;6307672;28;20028;-82
2024/01/04 16:06:00;;;;;;;0.20;0.20;;;;;;;;;;6307036;28;20024;-83
2024/01/04 16:09:00;;;;;;;0.20;0.20;;;;;;;;;;6288410;28;20034;-82
2024/01/04 16:12:00;;;;;;;0.20;0.20;;;;;;;;;;6324013;28;20066;-82
2024/01/04 16:15:00;;;;;;;0.20;0.20;;;;;;;;;;6312944;28;20060;-83
2024/01/04 16:18:01;;;;;;;0.20;0.20;;;;;;;;;;6326716;28;20521;-82
2024/01/04 16:21:01;;;;;;;0.20;0.20;;;;;;;;;;6324385;28;20026;-83
2024/01/04 16:24:02;;;;;;;0.20;0.20;;;;;;;;;;6307074;28;20028;-82
2024/01/04 16:27:04;;;;;;;0.20;0.20;;;;;;;;;;6285012;28;20048;-83
2024/01/04 16:30:05;;;;;;;0.20;0.20;;;;;;;;;;6295194;28;20032;-81
2024/01/04 16:33:05;;;;;;;0.13;0.13;;;;;;;;;;6273001;28;20494;-82
2024/01/04 16:36:11;;;;;;;0.20;0.20;;;;;;;;;;6268101;28;20013;-82
2024/01/04 16:39:12;;;;;;;0.20;0.20;;;;;;;;;;6281242;28;20496;-82
2024/01/04 16:42:12;;;;;;;0.20;0.20;;;;;;;;;;6289415;28;20509;-82
2024/01/04 16:45:13;;;;;;;0.20;0.20;;;;;;;;;;6296764;28;20024;-81
2024/01/04 16:48:13;;;;;;;0.17;0.17;;;;;;;;;;6279506;28;20487;-81
2024/01/04 16:51:13;;;;;;;0.17;0.17;;;;;;;;;;6296457;28;20027;-82
2024/01/04 16:54:14;;;;;;;0.20;0.20;;;;;;;;;;6289021;28;20044;-77
2024/01/04 16:57:14;;;;;;;0.10;0.10;;;;;;;;;;6286941;28;20127;-78
2024/01/04 17:00:14;;;;;;;0.20;0.20;;;;;;;;;;6295359;28;20112;-77
2024/01/04 17:03:15;;;;;;;0.20;0.20;;;;;;;;;;6255389;28;20085;-78
2024/01/04 17:06:15;;;;;;;0.20;0.20;;;;;;;;;;6285067;28;20060;-79
2024/01/04 17:09:16;;;;;;;0.20;0.20;;;;;;;;;;6303329;28;20027;-79
2024/01/04 17:12:16;;;;;;;0.20;0.20;;;;;;;;;;6275957;28;20709;-79
2024/01/04 17:15:16;;;;;;;0.20;0.20;;;;;;;;;;6285191;28;20471;-79
2024/01/04 17:18:16;;;;;;;0.10;0.10;;;;;;;;;;6296194;28;20474;-77
2024/01/04 17:21:17;;;;;;;0.10;0.10;;;;;;;;;;6281107;28;20025;-79
2024/01/04 17:24:17;;;;;;;0.20;0.20;;;;;;;;;;6283350;28;20024;-81
2024/01/04 17:27:17;;;;;;;0.20;0.20;;;;;;;;;;6306045;28;20035;-81
2024/01/04 17:30:21;;;;;;;0.20;0.20;;;;;;;;;;6308361;28;20166;-80
2024/01/04 17:33:21;;;;;;;0.20;0.20;;;;;;;;;;6297767;28;20028;-81
2024/01/04 17:36:21;;;;;;;0.20;0.20;;;;;;;;;;6315855;28;20475;-81
2024/01/04 17:39:23;;;;;;;0.20;0.20;;;;;;;;;;6306468;28;20063;-80
2024/01/04 17:42:24;;;;;;;0.20;0.20;;;;;;;;;;6321108;28;20023;-81
2024/01/04 17:45:24;;;;;;;0.20;0.20;;;;;;;;;;6303827;28;20016;-84
2024/01/04 17:48:24;;;;;;;0.20;0.20;;;;;;;;;;6308965;28;20565;-83
2024/01/04 17:51:24;;;;;;;0.10;0.10;;;;;;;;;;6332310;28;20154;-83
2024/01/04 17:54:25;;;;;;;0.20;0.20;;;;;;;;;;6324730;28;20041;-83
2024/01/04 17:57:25;;;;;;;0.20;0.20;;;;;;;;;;6316427;28;20025;-80
2024/01/04 18:00:26;;;;;;;0.20;0.20;;;;;;;;;;6310544;28;20027;-81
2024/01/04 18:03:26;;;;;;;0.20;0.20;;;;;;;;;;6310969;28;20596;-82